Time;durP1;ratioP1;P1;durP2;ratioP2;P2;SDS_P1;SDS_P2;PMS_P1;PMS_P2;Temp;Humidity;BMP_temperature;BMP_pressure;BME280_temperature;BME280_humidity;BME280_pressure;Samples;Min_cycle;Max_cycle;Signal;HPM_P1;HPM_P2
2023/12/19 00:01:45;;;;;;;;;;;;;;;;;;5074032;28;20359;-20
2023/12/19 00:04:11;;;;;;;;;;;;;;;;;;5074894;28;20090;-21
2023/12/19 00:06:37;;;;;;;;;;;;;;;;;;5075047;28;19908;-23
2023/12/19 00:09:03;;;;;;;;;;;;;;;;;;5075254;28;19908;-21
2023/12/19 00:11:29;;;;;;;;;;;;;;;;;;5075033;28;20340;-22
2023/12/19 00:13:55;;;;;;;;;;;;;;;;;;5074852;28;19920;-21
2023/12/19 00:16:21;;;;;;;;;;;;;;;;;;5075116;28;19923;-20
2023/12/19 00:18:47;;;;;;;;;;;;;;;;;;5074892;28;19913;-20
2023/12/19 00:21:13;;;;;;;;;;;;;;;;;;5073819;28;19909;-21
2023/12/19 00:23:39;;;;;;;;;;;;;;;;;;5073813;28;19909;-21
2023/12/19 00:26:05;;;;;;;;;;;;;;;;;;5074808;28;20421;-21
2023/12/19 00:28:31;;;;;;;;;;;;;;;;;;5075031;28;19909;-22
2023/12/19 00:30:57;;;;;;;;;;;;;;;;;;5074689;28;19981;-20
2023/12/19 00:33:23;;;;;;;;;;;;;;;;;;5074667;28;19917;-19
2023/12/19 00:35:49;;;;;;;;;;;;;;;;;;5074899;28;19954;-21
2023/12/19 00:38:15;;;;;;;;;;;;;;;;;;5074725;28;19915;-20
2023/12/19 00:40:41;;;;;;;;;;;;;;;;;;5074687;28;19909;-22
2023/12/19 00:43:07;;;;;;;;;;;;;;;;;;5074715;28;19915;-20
2023/12/19 00:45:33;;;;;;;;;;;;;;;;;;5074932;28;19913;-21
2023/12/19 00:47:59;;;;;;;;;;;;;;;;;;5074584;28;19920;-20
2023/12/19 00:50:25;;;;;;;;;;;;;;;;;;5074852;28;19909;-20
2023/12/19 00:52:51;;;;;;;;;;;;;;;;;;5074438;28;19962;-22
2023/12/19 00:55:17;;;;;;;;;;;;;;;;;;5073529;28;20370;-22
2023/12/19 00:57:43;;;;;;;;;;;;;;;;;;5074677;28;20236;-20
2023/12/19 01:00:09;;;;;;;;;;;;;;;;;;5077648;28;19908;-19
2023/12/19 01:02:35;;;;;;;;;;;;;;;;;;5078270;28;19908;-20
2023/12/19 01:05:01;;;;;;;;;;;;;;;;;;5078725;28;20007;-21
2023/12/19 01:07:27;;;;;;;;;;;;;;;;;;5078374;28;19909;-21
2023/12/19 01:09:53;;;;;;;;;;;;;;;;;;5078579;28;19909;-22
2023/12/19 01:12:19;;;;;;;;;;;;;;;;;;5078174;28;20319;-19
2023/12/19 01:14:46;;;;;;;;;;;;;;;;;;5078281;28;19991;-19
2023/12/19 01:17:11;;;;;;;;;;;;;;;;;;5077172;28;20359;-21
2023/12/19 01:19:37;;;;;;;;;;;;;;;;;;5078457;28;19916;-21
2023/12/19 01:22:03;;;;;;;;;;;;;;;;;;5078109;28;20291;-22
2023/12/19 01:24:29;;;;;;;;;;;;;;;;;;5078127;28;19919;-21
2023/12/19 01:26:55;;;;;;;;;;;;;;;;;;5077959;28;19919;-20
2023/12/19 01:29:22;;;;;;;;;;;;;;;;;;5077998;28;19948;-20
2023/12/19 01:31:48;;;;;;;;;;;;;;;;;;5077554;28;19908;-21
2023/12/19 01:34:14;;;;;;;;;;;;;;;;;;5077873;28;20006;-21
2023/12/19 01:36:41;;;;;;;;;;;;;;;;;;5078037;28;19912;-22
2023/12/19 01:39:07;;;;;;;;;;;;;;;;;;5077781;28;19908;-20
2023/12/19 01:41:33;;;;;;;;;;;;;;;;;;5076864;28;20232;-21
2023/12/19 01:43:59;;;;;;;;;;;;;;;;;;5077935;28;19995;-22
2023/12/19 01:46:26;;;;;;;;;;;;;;;;;;5077673;28;19915;-21
2023/12/19 01:48:51;;;;;;;;;;;;;;;;;;5077921;28;19909;-21
2023/12/19 01:51:17;;;;;;;;;;;;;;;;;;5076634;28;20324;-19
2023/12/19 01:53:44;;;;;;;;;;;;;;;;;;5077509;28;20255;-21
2023/12/19 01:56:10;;;;;;;;;;;;;;;;;;5077462;28;19912;-20
2023/12/19 01:58:36;;;;;;;;;;;;;;;;;;5077513;28;19923;-22
2023/12/19 02:01:02;;;;;;;;;;;;;;;;;;5077366;28;19919;-21
2023/12/19 02:03:28;;;;;;;;;;;;;;;;;;5077111;28;19929;-20
2023/12/19 02:05:54;;;;;;;;;;;;;;;;;;5077304;28;19909;-20
2023/12/19 02:08:20;;;;;;;;;;;;;;;;;;5077566;28;19975;-21
2023/12/19 02:10:46;;;;;;;;;;;;;;;;;;5076556;28;19999;-19
2023/12/19 02:13:12;;;;;;;;;;;;;;;;;;5077380;28;19908;-21
2023/12/19 02:15:38;;;;;;;;;;;;;;;;;;5076088;28;20331;-21
2023/12/19 02:18:04;;;;;;;;;;;;;;;;;;5077118;28;19909;-21
2023/12/19 02:20:30;;;;;;;;;;;;;;;;;;5077142;28;19919;-21
2023/12/19 02:22:56;;;;;;;;;;;;;;;;;;5076946;28;19971;-20
2023/12/19 02:25:22;;;;;;;;;;;;;;;;;;5077236;28;20355;-20
2023/12/19 02:27:48;;;;;;;;;;;;;;;;;;5076875;28;19916;-19
2023/12/19 02:30:14;;;;;;;;;;;;;;;;;;5076890;28;20308;-21
2023/12/19 02:32:41;;;;;;;;;;;;;;;;;;5077078;28;19920;-21
2023/12/19 02:35:07;;;;;;;;;;;;;;;;;;5077092;28;19916;-20
2023/12/19 02:37:33;;;;;;;;;;;;;;;;;;5076968;28;19912;-22
2023/12/19 02:39:59;;;;;;;;;;;;;;;;;;5075694;28;20369;-21
2023/12/19 02:42:25;;;;;;;;;;;;;;;;;;5076620;28;20011;-20
2023/12/19 02:44:51;;;;;;;;;;;;;;;;;;5076790;28;19908;-19
2023/12/19 02:47:17;;;;;;;;;;;;;;;;;;5076543;28;19909;-21
2023/12/19 02:49:43;;;;;;;;;;;;;;;;;;5075502;28;19936;-21
2023/12/19 02:52:09;;;;;;;;;;;;;;;;;;5076352;28;19909;-21
2023/12/19 02:54:35;;;;;;;;;;;;;;;;;;5076471;28;19916;-20
2023/12/19 02:57:01;;;;;;;;;;;;;;;;;;5076534;28;19919;-20
2023/12/19 02:59:27;;;;;;;;;;;;;;;;;;5076320;28;19969;-22
2023/12/19 03:01:53;;;;;;;;;;;;;;;;;;5076160;28;19909;-20
2023/12/19 03:04:18;;;;;;;;;;;;;;;;;;5076099;28;20485;-21
2023/12/19 03:06:44;;;;;;;;;;;;;;;;;;5076453;28;20339;-21
2023/12/19 03:09:10;;;;;;;;;;;;;;;;;;5076372;28;20054;-20
2023/12/19 03:11:39;;;;;;;;;;;;;;;;;;5076069;28;19923;-21
2023/12/19 03:14:05;;;;;;;;;;;;;;;;;;5075923;28;19919;-22
2023/12/19 03:16:31;;;;;;;;;;;;;;;;;;5075905;28;19958;-21
2023/12/19 03:18:57;;;;;;;;;;;;;;;;;;5075906;28;19908;-22
2023/12/19 03:21:23;;;;;;;;;;;;;;;;;;5075839;28;19958;-20
2023/12/19 03:23:50;;;;;;;;;;;;;;;;;;5075118;28;19908;-21
2023/12/19 03:26:16;;;;;;;;;;;;;;;;;;5076367;28;20286;-21
2023/12/19 03:28:42;;;;;;;;;;;;;;;;;;5074731;28;19913;-21
2023/12/19 03:31:07;;;;;;;;;;;;;;;;;;5075689;28;20042;-21
2023/12/19 03:33:33;;;;;;;;;;;;;;;;;;5074623;28;19912;-23
2023/12/19 03:36:00;;;;;;;;;;;;;;;;;;5075751;28;19920;-22
2023/12/19 03:38:26;;;;;;;;;;;;;;;;;;5075588;28;19908;-22
2023/12/19 03:40:52;;;;;;;;;;;;;;;;;;5075476;28;19916;-19
2023/12/19 03:43:18;;;;;;;;;;;;;;;;;;5075355;28;19915;-20
2023/12/19 03:45:44;;;;;;;;;;;;;;;;;;5074429;28;19919;-21
2023/12/19 03:48:09;;;;;;;;;;;;;;;;;;5074366;28;20381;-20
2023/12/19 03:50:35;;;;;;;;;;;;;;;;;;5075406;28;19919;-22
2023/12/19 03:53:01;;;;;;;;;;;;;;;;;;5074263;28;19908;-20
2023/12/19 03:55:27;;;;;;;;;;;;;;;;;;5075251;28;19919;-20
2023/12/19 03:57:53;;;;;;;;;;;;;;;;;;5075883;28;19947;-20
2023/12/19 04:00:19;;;;;;;;;;;;;;;;;;5075177;28;19908;-21
2023/12/19 04:02:45;;;;;;;;;;;;;;;;;;5075025;28;20264;-21
2023/12/19 04:05:11;;;;;;;;;;;;;;;;;;5075307;28;19912;-21
2023/12/19 04:07:37;;;;;;;;;;;;;;;;;;5075059;28;19909;-22
2023/12/19 04:10:03;;;;;;;;;;;;;;;;;;5075027;28;19909;-21
2023/12/19 04:12:29;;;;;;;;;;;;;;;;;;5074965;28;19908;-21
2023/12/19 04:14:55;;;;;;;;;;;;;;;;;;5075009;28;19974;-20
2023/12/19 04:17:21;;;;;;;;;;;;;;;;;;5074952;28;20283;-22
2023/12/19 04:19:47;;;;;;;;;;;;;;;;;;5074889;28;19999;-21
2023/12/19 04:22:13;;;;;;;;;;;;;;;;;;5074833;28;19961;-21
2023/12/19 04:24:39;;;;;;;;;;;;;;;;;;5075152;28;19919;-21
2023/12/19 04:27:05;;;;;;;;;;;;;;;;;;5074752;28;20003;-21
2023/12/19 04:29:31;;;;;;;;;;;;;;;;;;5074834;28;19909;-20
2023/12/19 04:31:57;;;;;;;;;;;;;;;;;;5074655;28;19958;-20
2023/12/19 04:34:23;;;;;;;;;;;;;;;;;;5074648;28;19909;-21
2023/12/19 04:36:49;;;;;;;;;;;;;;;;;;5074545;28;19939;-23
2023/12/19 04:39:15;;;;;;;;;;;;;;;;;;5074586;28;19908;-22
2023/12/19 04:41:41;;;;;;;;;;;;;;;;;;5075081;28;19916;-21
2023/12/19 04:44:07;;;;;;;;;;;;;;;;;;5074376;28;19909;-21
2023/12/19 04:46:33;;;;;;;;;;;;;;;;;;5074449;28;20287;-20
2023/12/19 04:48:59;;;;;;;;;;;;;;;;;;5074626;28;19908;-22
2023/12/19 04:51:25;;;;;;;;;;;;;;;;;;5074440;28;19919;-22
2023/12/19 04:53:51;;;;;;;;;;;;;;;;;;5073188;28;19908;-21
2023/12/19 04:56:17;;;;;;;;;;;;;;;;;;5073182;28;19916;-20
2023/12/19 04:58:44;;;;;;;;;;;;;;;;;;5074322;28;19966;-21
2023/12/19 05:01:11;;;;;;;;;;;;;;;;;;5074558;28;19908;-21
2023/12/19 05:03:39;;;;;;;;;;;;;;;;;;5073005;28;19924;-22
2023/12/19 05:06:05;;;;;;;;;;;;;;;;;;5074199;28;19908;-20
2023/12/19 05:08:31;;;;;;;;;;;;;;;;;;5074120;28;19919;-21
2023/12/19 05:10:57;;;;;;;;;;;;;;;;;;5074034;28;20011;-20
2023/12/19 05:13:23;;;;;;;;;;;;;;;;;;5073931;28;19915;-21
2023/12/19 05:15:49;;;;;;;;;;;;;;;;;;5074017;28;19916;-20
2023/12/19 05:18:18;;;;;;;;;;;;;;;;;;5072641;28;20027;-20
2023/12/19 05:20:44;;;;;;;;;;;;;;;;;;5072705;28;19972;-20
2023/12/19 05:23:10;;;;;;;;;;;;;;;;;;5072666;28;19919;-19
2023/12/19 05:25:36;;;;;;;;;;;;;;;;;;5073558;28;19916;-21
2023/12/19 05:28:02;;;;;;;;;;;;;;;;;;5072699;28;19908;-21
2023/12/19 05:30:28;;;;;;;;;;;;;;;;;;5073630;28;20307;-22
2023/12/19 05:32:54;;;;;;;;;;;;;;;;;;5073555;28;20185;-21
2023/12/19 05:35:20;;;;;;;;;;;;;;;;;;5073968;28;19931;-21
2023/12/19 05:37:46;;;;;;;;;;;;;;;;;;5073652;28;20330;-22
2023/12/19 05:40:12;;;;;;;;;;;;;;;;;;5073864;28;19995;-19
2023/12/19 05:42:38;;;;;;;;;;;;;;;;;;5074162;28;19908;-20
2023/12/19 05:45:04;;;;;;;;;;;;;;;;;;5074046;28;20383;-20
2023/12/19 05:47:30;;;;;;;;;;;;;;;;;;5077191;28;20003;-22
2023/12/19 05:49:56;;;;;;;;;;;;;;;;;;5077326;28;19956;-21
2023/12/19 05:52:22;;;;;;;;;;;;;;;;;;5077183;28;19920;-22
2023/12/19 05:54:48;;;;;;;;;;;;;;;;;;5077557;28;19995;-20
2023/12/19 05:57:14;;;;;;;;;;;;;;;;;;5077055;28;20335;-22
2023/12/19 05:59:40;;;;;;;;;;;;;;;;;;5077155;28;19930;-20
2023/12/19 06:02:06;;;;;;;;;;;;;;;;;;5076123;28;19919;-21
2023/12/19 06:04:32;;;;;;;;;;;;;;;;;;5076047;28;19952;-21
2023/12/19 06:06:58;;;;;;;;;;;;;;;;;;5077519;28;20013;-21
2023/12/19 06:09:24;;;;;;;;;;;;;;;;;;5076233;28;19934;-21
2023/12/19 06:11:50;;;;;;;;;;;;;;;;;;5077025;28;20013;-21
2023/12/19 06:14:15;;;;;;;;;;;;;;;;;;5077362;28;20326;-20
2023/12/19 06:16:41;;;;;;;;;;;;;;;;;;5077172;28;19982;-21
2023/12/19 06:19:07;;;;;;;;;;;;;;;;;;5076835;28;19919;-20
2023/12/19 06:21:33;;;;;;;;;;;;;;;;;;5076768;28;19913;-22
2023/12/19 06:23:59;;;;;;;;;;;;;;;;;;5076591;28;19961;-21
2023/12/19 06:26:25;;;;;;;;;;;;;;;;;;5076692;28;20370;-21
2023/12/19 06:28:51;;;;;;;;;;;;;;;;;;5077048;28;19908;-21
2023/12/19 06:31:19;;;;;;;;;;;;;;;;;;5076871;28;19909;-20
2023/12/19 06:33:45;;;;;;;;;;;;;;;;;;5076832;28;19995;-21
2023/12/19 06:36:11;;;;;;;;;;;;;;;;;;5076620;28;20009;-20
2023/12/19 06:38:37;;;;;;;;;;;;;;;;;;5076591;28;19952;-22
2023/12/19 06:41:03;;;;;;;;;;;;;;;;;;5076344;28;19920;-22
2023/12/19 06:43:29;;;;;;;;;;;;;;;;;;5076283;28;19918;-21
2023/12/19 06:45:55;;;;;;;;;;;;;;;;;;5076169;28;19986;-21
2023/12/19 06:48:23;;;;;;;;;;;;;;;;;;5076055;28;19988;-22
2023/12/19 06:50:49;;;;;;;;;;;;;;;;;;5076165;28;19932;-21
2023/12/19 06:53:15;;;;;;;;;;;;;;;;;;5076522;28;20280;-21
2023/12/19 06:55:41;;;;;;;;;;;;;;;;;;5076021;28;20289;-21
2023/12/19 06:58:07;;;;;;;;;;;;;;;;;;5075780;28;19913;-20
2023/12/19 07:00:33;;;;;;;;;;;;;;;;;;5076120;28;19961;-20
2023/12/19 07:02:59;;;;;;;;;;;;;;;;;;5075444;28;19928;-21
2023/12/19 07:05:25;;;;;;;;;;;;;;;;;;5076280;28;19908;-21
2023/12/19 07:07:51;;;;;;;;;;;;;;;;;;5076369;28;19912;-22
2023/12/19 07:10:17;;;;;;;;;;;;;;;;;;5075619;28;20373;-21
2023/12/19 07:12:43;;;;;;;;;;;;;;;;;;5075253;28;19909;-21
2023/12/19 07:15:09;;;;;;;;;;;;;;;;;;5075226;28;19934;-19
2023/12/19 07:17:35;;;;;;;;;;;;;;;;;;5075094;28;19917;-21
2023/12/19 07:20:02;;;;;;;;;;;;;;;;;;5075034;28;19908;-21
2023/12/19 07:22:28;;;;;;;;;;;;;;;;;;5075221;28;20022;-21
2023/12/19 07:24:55;;;;;;;;;;;;;;;;;;5074957;28;19950;-21
2023/12/19 07:27:21;;;;;;;;;;;;;;;;;;5073749;28;19936;-21
2023/12/19 07:29:47;;;;;;;;;;;;;;;;;;5074860;28;19912;-21
2023/12/19 07:32:13;;;;;;;;;;;;;;;;;;5074670;28;19969;-24
2023/12/19 07:34:39;;;;;;;;;;;;;;;;;;5074794;28;19923;-21
2023/12/19 07:37:05;;;;;;;;;;;;;;;;;;5074831;28;20332;-20
2023/12/19 07:39:31;;;;;;;;;;;;;;;;;;5074251;28;19928;-19
2023/12/19 07:41:57;;;;;;;;;;;;;;;;;;5075069;28;19912;-24
2023/12/19 07:44:23;;;;;;;;;;;;;;;;;;5075146;28;19908;-21
2023/12/19 07:46:49;;;;;;;;;;;;;;;;;;5074970;28;19931;-22
2023/12/19 07:49:15;;;;;;;;;;;;;;;;;;5074958;28;20331;-21
2023/12/19 07:51:41;;;;;;;;;;;;;;;;;;5073557;28;20243;-20
2023/12/19 07:54:07;;;;;;;;;;;;;;;;;;5075057;28;19912;-19
2023/12/19 07:56:33;;;;;;;;;;;;;;;;;;5074812;28;19912;-21
2023/12/19 07:58:59;;;;;;;;;;;;;;;;;;5074725;28;19916;-21
2023/12/19 08:01:25;;;;;;;;;;;;;;;;;;5074431;28;20000;-21
2023/12/19 08:03:51;;;;;;;;;;;;;;;;;;5074199;28;19999;-23
2023/12/19 08:06:18;;;;;;;;;;;;;;;;;;5074547;28;19913;-21
2023/12/19 08:08:44;;;;;;;;;;;;;;;;;;5074016;28;19908;-21
2023/12/19 08:11:12;;;;;;;;;;;;;;;;;;5074424;28;19908;-21
2023/12/19 08:13:37;;;;;;;;;;;;;;;;;;5074499;28;19966;-23
2023/12/19 08:16:05;;;;;;;;;;;;;;;;;;5074292;28;20270;-21
2023/12/19 08:18:30;;;;;;;;;;;;;;;;;;5074233;28;19995;-22
2023/12/19 08:20:56;;;;;;;;;;;;;;;;;;5074422;28;19971;-22
2023/12/19 08:23:22;;;;;;;;;;;;;;;;;;5074280;28;20300;-21
2023/12/19 08:25:48;;;;;;;;;;;;;;;;;;5073577;28;19970;-20
2023/12/19 08:28:14;;;;;;;;;;;;;;;;;;5074516;28;19909;-22
2023/12/19 08:30:40;;;;;;;;;;;;;;;;;;5074388;28;19940;-23
2023/12/19 08:33:06;;;;;;;;;;;;;;;;;;5073334;28;20263;-21
2023/12/19 08:35:32;;;;;;;;;;;;;;;;;;5074416;28;20003;-22
2023/12/19 08:37:58;;;;;;;;;;;;;;;;;;5073310;28;19912;-20
2023/12/19 08:40:24;;;;;;;;;;;;;;;;;;5074544;28;19916;-19
2023/12/19 08:42:51;;;;;;;;;;;;;;;;;;5074486;28;19909;-21
2023/12/19 08:45:17;;;;;;;;;;;;;;;;;;5074245;28;19912;-22
2023/12/19 08:47:43;;;;;;;;;;;;;;;;;;5073141;28;19920;-22
2023/12/19 08:50:10;;;;;;;;;;;;;;;;;;5074112;28;19919;-22
2023/12/19 08:52:39;;;;;;;;;;;;;;;;;;5074170;28;19915;-21
2023/12/19 08:55:06;;;;;;;;;;;;;;;;;;5074406;28;19908;-21
2023/12/19 08:57:32;;;;;;;;;;;;;;;;;;5074048;28;20210;-21
2023/12/19 08:59:58;;;;;;;;;;;;;;;;;;5074446;28;19999;-20
2023/12/19 09:02:24;;;;;;;;;;;;;;;;;;5073786;28;20385;-21
2023/12/19 09:04:50;;;;;;;;;;;;;;;;;;5073950;28;20230;-22
2023/12/19 09:07:16;;;;;;;;;;;;;;;;;;5072958;28;19981;-22
2023/12/19 09:09:42;;;;;;;;;;;;;;;;;;5074088;28;19974;-21
2023/12/19 09:12:08;;;;;;;;;;;;;;;;;;5073923;28;19909;-20
2023/12/19 09:14:36;;;;;;;;;;;;;;;;;;5074068;28;20429;-20
2023/12/19 09:17:02;;;;;;;;;;;;;;;;;;5074289;28;20336;-22
2023/12/19 09:19:30;;;;;;;;;;;;;;;;;;5073817;28;19966;-22
2023/12/19 09:21:57;;;;;;;;;;;;;;;;;;5076404;28;19908;-20
2023/12/19 09:24:23;;;;;;;;;;;;;;;;;;5077711;28;19908;-22
2023/12/19 09:26:49;;;;;;;;;;;;;;;;;;5077817;28;19908;-21
2023/12/19 09:29:15;;;;;;;;;;;;;;;;;;5077655;28;20242;-21
2023/12/19 09:31:41;;;;;;;;;;;;;;;;;;5077735;28;19909;-21
2023/12/19 09:34:08;;;;;;;;;;;;;;;;;;5077837;28;19970;-21
2023/12/19 09:36:36;;;;;;;;;;;;;;;;;;5077581;28;20328;-20
2023/12/19 09:39:03;;;;;;;;;;;;;;;;;;5077587;28;20389;-22
2023/12/19 09:41:29;;;;;;;;;;;;;;;;;;5077356;28;19909;-22
2023/12/19 09:43:55;;;;;;;;;;;;;;;;;;5077093;28;20255;-19
2023/12/19 09:46:22;;;;;;;;;;;;;;;;;;5077055;28;19954;-21
2023/12/19 09:48:49;;;;;;;;;;;;;;;;;;5076646;28;19963;-20
2023/12/19 09:51:15;;;;;;;;;;;;;;;;;;5076840;28;19909;-20
2023/12/19 09:53:40;;;;;;;;;;;;;;;;;;5076821;28;19916;-21
2023/12/19 09:56:06;;;;;;;;;;;;;;;;;;5076925;28;19923;-22
2023/12/19 09:58:32;;;;;;;;;;;;;;;;;;5076617;28;19908;-22
2023/12/19 10:00:59;;;;;;;;;;;;;;;;;;5076744;28;20006;-23
2023/12/19 10:03:25;;;;;;;;;;;;;;;;;;5076260;28;19921;-22
2023/12/19 10:05:50;;;;;;;;;;;;;;;;;;5075325;28;20030;-20
2023/12/19 10:08:16;;;;;;;;;;;;;;;;;;5076496;28;19920;-19
2023/12/19 10:10:42;;;;;;;;;;;;;;;;;;5076434;28;19950;-24
2023/12/19 10:13:09;;;;;;;;;;;;;;;;;;5075076;28;19908;-22
2023/12/19 10:15:35;;;;;;;;;;;;;;;;;;5075375;28;20283;-21
2023/12/19 10:18:03;;;;;;;;;;;;;;;;;;5076067;28;19912;-22
2023/12/19 10:20:29;;;;;;;;;;;;;;;;;;5076499;28;19915;-22
2023/12/19 10:22:55;;;;;;;;;;;;;;;;;;5076367;28;19908;-21
2023/12/19 10:25:23;;;;;;;;;;;;;;;;;;5076544;28;19908;-21
2023/12/19 10:27:49;;;;;;;;;;;;;;;;;;5076687;28;19926;-22
2023/12/19 10:30:17;;;;;;;;;;;;;;;;;;5076763;28;19908;-23
2023/12/19 10:32:43;;;;;;;;;;;;;;;;;;5075844;28;19991;-22
2023/12/19 10:35:09;;;;;;;;;;;;;;;;;;5076332;28;19944;-22
2023/12/19 10:37:36;;;;;;;;;;;;;;;;;;5076517;28;19919;-21
2023/12/19 10:40:02;;;;;;;;;;;;;;;;;;5076349;28;19936;-21
2023/12/19 10:42:28;;;;;;;;;;;;;;;;;;5076290;28;19935;-21
2023/12/19 10:44:58;;;;;;;;;;;;;;;;;;5076147;28;20374;-21
2023/12/19 10:47:24;;;;;;;;;;;;;;;;;;5075856;28;20284;-21
2023/12/19 10:49:50;;;;;;;;;;;;;;;;;;5076150;28;19958;-24
2023/12/19 10:52:16;;;;;;;;;;;;;;;;;;5074735;28;19930;-23
2023/12/19 10:54:42;;;;;;;;;;;;;;;;;;5075835;28;19923;-21
2023/12/19 10:57:08;;;;;;;;;;;;;;;;;;5075609;28;19970;-21
2023/12/19 10:59:34;;;;;;;;;;;;;;;;;;5075606;28;19923;-19
2023/12/19 11:02:00;;;;;;;;;;;;;;;;;;5075712;28;19935;-20
2023/12/19 11:04:26;;;;;;;;;;;;;;;;;;5075641;28;20074;-21
2023/12/19 11:06:52;;;;;;;;;;;;;;;;;;5075991;28;19940;-22
2023/12/19 11:09:18;;;;;;;;;;;;;;;;;;5074580;28;20044;-23
2023/12/19 11:11:44;;;;;;;;;;;;;;;;;;5075638;28;19951;-22
2023/12/19 11:14:10;;;;;;;;;;;;;;;;;;5075611;28;19909;-21
2023/12/19 11:16:36;;;;;;;;;;;;;;;;;;5075675;28;19962;-22
2023/12/19 11:19:03;;;;;;;;;;;;;;;;;;5075367;28;20361;-21
2023/12/19 11:21:29;;;;;;;;;;;;;;;;;;5075470;28;19955;-21
2023/12/19 11:23:55;;;;;;;;;;;;;;;;;;5075504;28;19908;-23
2023/12/19 11:26:21;;;;;;;;;;;;;;;;;;5075317;28;19915;-21
2023/12/19 11:28:47;;;;;;;;;;;;;;;;;;5074219;28;19962;-22
2023/12/19 11:31:13;;;;;;;;;;;;;;;;;;5075015;28;19908;-21
2023/12/19 11:33:39;;;;;;;;;;;;;;;;;;5075176;28;19932;-22
2023/12/19 11:36:05;;;;;;;;;;;;;;;;;;5074899;28;19919;-21
2023/12/19 11:38:31;;;;;;;;;;;;;;;;;;5075326;28;19908;-19
2023/12/19 11:40:58;;;;;;;;;;;;;;;;;;5073777;28;19908;-20
2023/12/19 11:43:26;;;;;;;;;;;;;;;;;;5073065;28;20139;-21
2023/12/19 11:45:52;;;;;;;;;;;;;;;;;;5075300;28;19916;-20
2023/12/19 11:48:18;;;;;;;;;;;;;;;;;;5075066;28;19908;-20
2023/12/19 11:50:44;;;;;;;;;;;;;;;;;;5075198;28;20008;-20
2023/12/19 11:53:10;;;;;;;;;;;;;;;;;;5074929;28;19905;-22
2023/12/19 11:55:36;;;;;;;;;;;;;;;;;;5074845;28;19965;-21
2023/12/19 11:58:02;;;;;;;;;;;;;;;;;;5074678;28;19913;-20
2023/12/19 12:00:27;;;;;;;;;;;;;;;;;;5074539;28;19916;-21
2023/12/19 12:02:53;;;;;;;;;;;;;;;;;;5074012;28;19924;-21
2023/12/19 12:05:21;;;;;;;;;;;;;;;;;;5074540;28;20288;-23
2023/12/19 12:07:47;;;;;;;;;;;;;;;;;;5074413;28;19912;-19
2023/12/19 12:10:13;;;;;;;;;;;;;;;;;;5074192;28;19940;-20
2023/12/19 12:12:39;;;;;;;;;;;;;;;;;;5074058;28;19970;-21
2023/12/19 12:15:05;;;;;;;;;;;;;;;;;;5074321;28;19927;-22
2023/12/19 12:17:33;;;;;;;;;;;;;;;;;;5073230;28;19913;-21
2023/12/19 12:19:59;;;;;;;;;;;;;;;;;;5074145;28;19909;-21
2023/12/19 12:22:25;;;;;;;;;;;;;;;;;;5074159;28;19908;-22
2023/12/19 12:24:51;;;;;;;;;;;;;;;;;;5074617;28;19909;-21
2023/12/19 12:27:17;;;;;;;;;;;;;;;;;;5075128;28;19952;-21
2023/12/19 12:29:44;;;;;;;;;;;;;;;;;;5074451;28;20251;-19
2023/12/19 12:32:10;;;;;;;;;;;;;;;;;;5074452;28;19908;-20
2023/12/19 12:34:37;;;;;;;;;;;;;;;;;;5073325;28;20011;-20
2023/12/19 12:37:03;;;;;;;;;;;;;;;;;;5074419;28;19956;-20
2023/12/19 12:39:29;;;;;;;;;;;;;;;;;;5073452;28;19908;-20
2023/12/19 12:41:55;;;;;;;;;;;;;;;;;;5074335;28;19908;-21
2023/12/19 12:44:21;;;;;;;;;;;;;;;;;;5073341;28;19909;-24
2023/12/19 12:46:47;;;;;;;;;;;;;;;;;;5074599;28;19919;-20
2023/12/19 12:49:13;;;;;;;;;;;;;;;;;;5074513;28;20208;-22
2023/12/19 12:51:39;;;;;;;;;;;;;;;;;;5074499;28;19908;-20
2023/12/19 12:54:05;;;;;;;;;;;;;;;;;;5073108;28;19909;-22
2023/12/19 12:56:31;;;;;;;;;;;;;;;;;;5078211;28;20251;-23
2023/12/19 12:58:57;;;;;;;;;;;;;;;;;;5077761;28;19912;-22
2023/12/19 13:01:23;;;;;;;;;;;;;;;;;;5078113;28;19909;-22
2023/12/19 13:03:50;;;;;;;;;;;;;;;;;;5076799;28;20351;-21
2023/12/19 13:06:16;;;;;;;;;;;;;;;;;;5077879;28;19916;-22
2023/12/19 13:08:42;;;;;;;;;;;;;;;;;;5077863;28;20361;-20
2023/12/19 13:11:08;;;;;;;;;;;;;;;;;;5077911;28;19908;-19
2023/12/19 13:13:34;;;;;;;;;;;;;;;;;;5077802;28;20094;-21
2023/12/19 13:16:02;;;;;;;;;;;;;;;;;;5077702;28;20276;-22
2023/12/19 13:18:28;;;;;;;;;;;;;;;;;;5078037;28;19965;-22
2023/12/19 13:20:54;;;;;;;;;;;;;;;;;;5077610;28;19916;-22
2023/12/19 13:23:20;;;;;;;;;;;;;;;;;;5076527;28;19955;-23
2023/12/19 13:25:46;;;;;;;;;;;;;;;;;;5077506;28;19974;-23
2023/12/19 13:28:12;;;;;;;;;;;;;;;;;;5077671;28;19909;-22
2023/12/19 13:30:39;;;;;;;;;;;;;;;;;;5076413;28;19962;-21
2023/12/19 13:33:05;;;;;;;;;;;;;;;;;;5076338;28;20336;-21
2023/12/19 13:35:32;;;;;;;;;;;;;;;;;;5077378;28;19916;-21
2023/12/19 13:37:58;;;;;;;;;;;;;;;;;;5076424;28;19924;-21
2023/12/19 13:40:24;;;;;;;;;;;;;;;;;;5076308;28;19908;-25
2023/12/19 13:42:50;;;;;;;;;;;;;;;;;;5077278;28;20220;-22
2023/12/19 13:45:16;;;;;;;;;;;;;;;;;;5077170;28;19912;-20
2023/12/19 13:47:42;;;;;;;;;;;;;;;;;;5077278;28;20239;-22
2023/12/19 13:50:08;;;;;;;;;;;;;;;;;;5076356;28;20013;-22
2023/12/19 13:52:37;;;;;;;;;;;;;;;;;;5077879;28;19932;-23
2023/12/19 13:55:03;;;;;;;;;;;;;;;;;;5077095;28;20339;-20
2023/12/19 13:57:29;;;;;;;;;;;;;;;;;;5077073;28;20010;-22
2023/12/19 13:59:55;;;;;;;;;;;;;;;;;;5075956;28;20344;-21
2023/12/19 14:02:22;;;;;;;;;;;;;;;;;;5077021;28;19916;-21
2023/12/19 14:04:49;;;;;;;;;;;;;;;;;;5076042;28;20405;-22
2023/12/19 14:07:18;;;;;;;;;;;;;;;;;;5076102;28;19909;-22
2023/12/19 14:09:44;;;;;;;;;;;;;;;;;;5075766;28;19908;-21
2023/12/19 14:12:10;;;;;;;;;;;;;;;;;;5076855;28;19915;-20
2023/12/19 14:14:36;;;;;;;;;;;;;;;;;;5075808;28;20251;-22
2023/12/19 14:17:02;;;;;;;;;;;;;;;;;;5075862;28;19936;-21
2023/12/19 14:19:28;;;;;;;;;;;;;;;;;;5077115;28;19916;-20
2023/12/19 14:21:55;;;;;;;;;;;;;;;;;;5076755;28;19908;-21
2023/12/19 14:24:21;;;;;;;;;;;;;;;;;;5076994;28;19958;-20
2023/12/19 14:26:47;;;;;;;;;;;;;;;;;;5075649;28;19916;-23
2023/12/19 14:29:13;;;;;;;;;;;;;;;;;;5076754;28;19924;-22
2023/12/19 14:31:39;;;;;;;;;;;;;;;;;;5076597;28;19962;-21
2023/12/19 14:34:06;;;;;;;;;;;;;;;;;;5075679;28;19920;-21
2023/12/19 14:36:32;;;;;;;;;;;;;;;;;;5075183;28;20338;-21
2023/12/19 14:38:58;;;;;;;;;;;;;;;;;;5075220;28;19976;-21
2023/12/19 14:41:27;;;;;;;;;;;;;;;;;;5075409;28;20300;-21
2023/12/19 14:43:53;;;;;;;;;;;;;;;;;;5076438;28;20046;-22
2023/12/19 14:46:19;;;;;;;;;;;;;;;;;;5076464;28;19966;-23
2023/12/19 14:48:46;;;;;;;;;;;;;;;;;;5076385;28;20365;-21
2023/12/19 14:51:12;;;;;;;;;;;;;;;;;;5076322;28;19916;-20
2023/12/19 14:53:38;;;;;;;;;;;;;;;;;;5076980;28;19954;-22
2023/12/19 14:56:04;;;;;;;;;;;;;;;;;;5075111;28;19909;-19
2023/12/19 14:58:30;;;;;;;;;;;;;;;;;;5076360;28;19908;-21
2023/12/19 15:00:56;;;;;;;;;;;;;;;;;;5074935;28;19908;-22
2023/12/19 15:03:22;;;;;;;;;;;;;;;;;;5075757;28;19959;-22
2023/12/19 15:05:48;;;;;;;;;;;;;;;;;;5075813;28;19913;-22
2023/12/19 15:08:14;;;;;;;;;;;;;;;;;;5075861;28;19914;-21
2023/12/19 15:10:42;;;;;;;;;;;;;;;;;;5076113;28;19908;-20
2023/12/19 15:13:08;;;;;;;;;;;;;;;;;;5075736;28;20028;-20
2023/12/19 15:15:34;;;;;;;;;;;;;;;;;;5074727;28;19912;-20
2023/12/19 15:18:00;;;;;;;;;;;;;;;;;;5074467;28;19913;-21
2023/12/19 15:20:26;;;;;;;;;;;;;;;;;;5074449;28;20001;-22
2023/12/19 15:22:52;;;;;;;;;;;;;;;;;;5075687;28;19908;-22
2023/12/19 15:25:18;;;;;;;;;;;;;;;;;;5075654;28;20331;-21
2023/12/19 15:27:44;;;;;;;;;;;;;;;;;;5075349;28;20003;-23
2023/12/19 15:30:10;;;;;;;;;;;;;;;;;;5075220;28;20295;-21
2023/12/19 15:32:36;;;;;;;;;;;;;;;;;;5075121;28;19919;-19
2023/12/19 15:35:02;;;;;;;;;;;;;;;;;;5075034;28;19913;-20
2023/12/19 15:37:28;;;;;;;;;;;;;;;;;;5075205;28;20390;-20
2023/12/19 15:39:54;;;;;;;;;;;;;;;;;;5075504;28;19951;-19
2023/12/19 15:42:20;;;;;;;;;;;;;;;;;;5074170;28;19908;-23
2023/12/19 15:44:46;;;;;;;;;;;;;;;;;;5075571;28;20007;-22
2023/12/19 15:47:12;;;;;;;;;;;;;;;;;;5074141;28;19909;-20
2023/12/19 15:49:38;;;;;;;;;;;;;;;;;;5074124;28;20339;-21
2023/12/19 15:52:04;;;;;;;;;;;;;;;;;;5075437;28;19935;-20
2023/12/19 15:54:30;;;;;;;;;;;;;;;;;;5075038;28;19912;-21
2023/12/19 15:56:56;;;;;;;;;;;;;;;;;;5074992;28;20388;-22
2023/12/19 15:59:22;;;;;;;;;;;;;;;;;;5075178;28;19916;-22
2023/12/19 16:01:48;;;;;;;;;;;;;;;;;;5074757;28;19909;-22
2023/12/19 16:04:14;;;;;;;;;;;;;;;;;;5074836;28;19920;-22
2023/12/19 16:06:40;;;;;;;;;;;;;;;;;;5074790;28;19909;-21
2023/12/19 16:09:07;;;;;;;;;;;;;;;;;;5074930;28;19908;-21
2023/12/19 16:11:34;;;;;;;;;;;;;;;;;;5073467;28;19935;-21
2023/12/19 16:14:02;;;;;;;;;;;;;;;;;;5074237;28;19974;-20
2023/12/19 16:16:28;;;;;;;;;;;;;;;;;;5073860;28;20002;-21
2023/12/19 16:18:55;;;;;;;;;;;;;;;;;;5074102;28;20308;-20
2023/12/19 16:21:21;;;;;;;;;;;;;;;;;;5074309;28;19908;-20
2023/12/19 16:23:47;;;;;;;;;;;;;;;;;;5074072;28;19912;-20
2023/12/19 16:26:13;;;;;;;;;;;;;;;;;;5072904;28;19912;-19
2023/12/19 16:28:39;;;;;;;;;;;;;;;;;;5073996;28;19943;-23
2023/12/19 16:31:05;;;;;;;;;;;;;;;;;;5072522;28;20173;-22
2023/12/19 16:33:31;;;;;;;;;;;;;;;;;;5073909;28;19996;-21
2023/12/19 16:35:57;;;;;;;;;;;;;;;;;;5073948;28;20011;-21
2023/12/19 16:38:23;;;;;;;;;;;;;;;;;;5074566;28;19908;-21